createdAt,value
2019-01-21T00:02:26.381Z,-1.90
2019-01-21T00:04:58.942Z,-1.90
2019-01-21T00:07:31.423Z,-1.80
2019-01-21T00:10:04.063Z,-1.70
2019-01-21T00:12:36.511Z,-1.70
2019-01-21T00:15:09.233Z,-1.70
2019-01-21T00:17:41.704Z,-1.70
2019-01-21T00:20:14.387Z,-1.70
2019-01-21T00:22:46.867Z,-1.80
2019-01-21T00:25:19.460Z,-1.80
2019-01-21T00:27:52.215Z,-1.90
2019-01-21T00:30:26.498Z,-2.00
2019-01-21T00:32:58.869Z,-2.20
2019-01-21T00:35:31.239Z,-2.30
2019-01-21T00:38:03.715Z,-2.40
2019-01-21T00:40:36.109Z,-2.50
2019-01-21T00:43:08.683Z,-2.50
2019-01-21T00:45:41.363Z,-2.60
2019-01-21T00:48:13.735Z,-2.60
2019-01-21T00:50:46.419Z,-2.70
2019-01-21T00:53:18.801Z,-2.70
2019-01-21T00:55:51.689Z,-2.80
2019-01-21T00:58:24.164Z,-2.80
2019-01-21T01:00:56.792Z,-2.90
2019-01-21T01:03:29.374Z,-2.90
2019-01-21T01:06:01.859Z,-2.80
2019-01-21T01:08:34.440Z,-2.80
2019-01-21T01:11:07.122Z,-2.70
2019-01-21T01:13:39.606Z,-2.80
2019-01-21T01:16:12.093Z,-2.90
2019-01-21T01:18:44.858Z,-3.10
2019-01-21T01:21:17.436Z,-3.10
2019-01-21T01:23:49.911Z,-3.10
2019-01-21T01:26:22.401Z,-3.20
2019-01-21T01:28:54.770Z,-3.20
2019-01-21T01:31:27.143Z,-3.30
2019-01-21T01:33:59.524Z,-3.40
2019-01-21T01:36:31.905Z,-3.50
2019-01-21T01:39:05.845Z,-3.50
2019-01-21T01:41:38.519Z,-3.50
2019-01-21T01:44:11.199Z,-3.50
2019-01-21T01:46:43.885Z,-3.60
2019-01-21T01:49:16.458Z,-3.60
2019-01-21T01:51:49.037Z,-3.70
2019-01-21T01:54:21.711Z,-3.70
2019-01-21T01:56:54.288Z,-3.80
2019-01-21T01:59:27.032Z,-3.80
2019-01-21T02:01:59.404Z,-3.90
2019-01-21T02:04:32.078Z,-3.90
2019-01-21T02:07:04.851Z,-3.90
2019-01-21T02:09:37.322Z,-4.00
2019-01-21T02:12:09.992Z,-4.00
2019-01-21T02:14:42.477Z,-4.00
2019-01-21T02:17:14.956Z,-4.00
2019-01-21T02:19:48.118Z,-4.00
2019-01-21T02:22:23.996Z,-4.10
2019-01-21T02:25:01.319Z,-4.00
2019-01-21T02:28:18.566Z,-4.10
2019-01-21T02:31:33.303Z,-4.10
2019-01-21T02:35:01.561Z,-4.10
2019-01-21T02:38:33.321Z,-4.10
2019-01-21T02:41:31.290Z,-4.00
2019-01-21T02:45:03.932Z,-3.90
2019-01-21T02:48:13.893Z,-3.80
2019-01-21T02:51:41.075Z,-3.70
2019-01-21T02:55:09.019Z,-3.70
2019-01-21T02:58:26.137Z,-3.80
2019-01-21T03:01:40.541Z,-3.90
2019-01-21T03:05:16.610Z,-4.00
2019-01-21T03:08:49.084Z,-4.00
2019-01-21T03:12:19.209Z,-4.10
2019-01-21T03:15:45.382Z,-4.10
2019-01-21T03:19:14.769Z,-4.20
2019-01-21T03:23:04.657Z,-4.20
2019-01-21T03:26:34.429Z,-4.30
2019-01-21T03:29:58.948Z,-4.20
2019-01-21T03:33:53.587Z,-4.00
2019-01-21T03:37:24.510Z,-4.00
2019-01-21T03:41:15.966Z,-4.20
2019-01-21T03:44:55.245Z,-4.30
2019-01-21T03:48:16.689Z,-4.40
2019-01-21T03:51:49.093Z,-4.50
2019-01-21T03:54:57.726Z,-4.60
2019-01-21T03:58:02.359Z,-4.50
2019-01-21T04:01:18.978Z,-4.40
2019-01-21T04:05:12.119Z,-4.30
2019-01-21T04:08:44.908Z,-4.20
2019-01-21T04:12:29.119Z,-4.10
2019-01-21T04:16:05.176Z,-4.20
2019-01-21T04:19:26.933Z,-4.20
2019-01-21T04:22:38.014Z,-4.10
2019-01-21T04:26:11.768Z,-4.10
2019-01-21T04:29:05.750Z,-4.20
2019-01-21T04:32:43.297Z,-4.30
2019-01-21T04:35:59.919Z,-4.30
2019-01-21T04:39:08.423Z,-4.30
2019-01-21T04:42:45.717Z,-4.20
2019-01-21T04:45:42.233Z,-4.30
2019-01-21T04:48:33.076Z,-4.30
2019-01-21T04:52:03.450Z,-4.40
2019-01-21T04:55:28.102Z,-4.40
2019-01-21T04:58:55.257Z,-4.40
2019-01-21T05:03:00.565Z,-4.50
2019-01-21T05:06:02.827Z,-4.50
2019-01-21T05:09:42.565Z,-4.40
2019-01-21T05:13:00.303Z,-4.50
2019-01-21T05:16:24.338Z,-4.50
2019-01-21T05:19:38.871Z,-4.40
2019-01-21T05:23:20.450Z,-4.30
2019-01-21T05:26:47.517Z,-4.40
2019-01-21T05:30:10.512Z,-4.30
2019-01-21T05:33:20.167Z,-4.40
2019-01-21T05:36:49.806Z,-4.50
2019-01-21T05:39:56.316Z,-4.50
2019-01-21T05:43:25.570Z,-4.50
2019-01-21T05:46:53.362Z,-4.60
2019-01-21T05:50:25.589Z,-4.70
2019-01-21T05:54:06.096Z,-4.70
2019-01-21T05:57:31.101Z,-4.60
2019-01-21T06:00:48.734Z,-4.60
2019-01-21T06:04:19.816Z,-4.70
2019-01-21T06:07:47.941Z,-4.80
2019-01-21T06:10:54.961Z,-4.90
2019-01-21T06:14:25.688Z,-5.00
2019-01-21T06:17:30.180Z,-5.00
2019-01-21T06:21:13.253Z,-4.90
2019-01-21T06:24:34.950Z,-4.70
2019-01-21T06:27:53.003Z,-4.50
2019-01-21T06:30:59.408Z,-4.30
2019-01-21T06:34:16.996Z,-4.40
2019-01-21T06:37:32.122Z,-4.40
2019-01-21T06:41:06.991Z,-4.30
2019-01-21T06:44:25.932Z,-4.40
2019-01-21T06:48:12.806Z,-4.60
2019-01-21T06:51:37.291Z,-5.00
2019-01-21T06:54:42.804Z,-5.20
2019-01-21T06:57:56.881Z,-5.40
2019-01-21T07:01:36.686Z,-5.50
2019-01-21T07:05:06.795Z,-5.50
2019-01-21T07:08:39.603Z,-5.50
2019-01-21T07:12:01.169Z,-5.50
2019-01-21T07:15:35.474Z,-5.40
2019-01-21T07:19:11.122Z,-5.40
2019-01-21T07:22:49.845Z,-5.30
2019-01-21T07:26:37.087Z,-4.80
2019-01-21T07:30:15.144Z,-4.30
2019-01-21T07:33:49.264Z,-3.50
2019-01-21T07:37:29.404Z,-3.10
2019-01-21T07:40:42.363Z,-2.80
2019-01-21T07:43:53.289Z,-1.70
2019-01-21T07:47:49.127Z,-0.40
2019-01-21T07:51:32.119Z,0.00
2019-01-21T07:55:05.423Z,0.40
2019-01-21T07:58:40.125Z,-0.20
2019-01-21T08:01:26.291Z,-0.90
2019-01-21T08:04:54.099Z,-1.30
2019-01-21T08:08:34.088Z,-1.50
2019-01-21T08:12:11.790Z,-1.50
2019-01-21T08:15:50.271Z,-0.90
2019-01-21T08:19:25.968Z,-0.70
2019-01-21T08:22:57.993Z,0.20
2019-01-21T08:26:23.304Z,0.80
2019-01-21T08:30:21.803Z,3.00
2019-01-21T08:33:30.947Z,5.50
2019-01-21T08:36:48.337Z,7.40
2019-01-21T08:40:10.190Z,8.70
2019-01-21T08:43:44.000Z,10.00
2019-01-21T08:47:08.057Z,10.90
2019-01-21T08:50:55.199Z,11.60
2019-01-21T08:54:23.298Z,12.10
2019-01-21T08:57:48.476Z,11.70
2019-01-21T09:01:10.053Z,10.30
2019-01-21T09:04:40.564Z,8.80
2019-01-21T09:08:17.444Z,8.20
2019-01-21T09:11:56.457Z,7.80
2019-01-21T09:15:31.495Z,7.70
2019-01-21T09:19:06.139Z,7.40
2019-01-21T09:22:30.951Z,7.00
2019-01-21T09:25:53.066Z,6.90
2019-01-21T09:29:32.027Z,6.50
2019-01-21T09:32:54.478Z,5.50
2019-01-21T09:36:15.841Z,4.40
2019-01-21T09:39:47.094Z,3.70
2019-01-21T09:42:56.739Z,3.00
2019-01-21T09:46:18.597Z,2.40
2019-01-21T09:48:48.057Z,2.00
2019-01-21T09:51:21.474Z,1.70
2019-01-21T09:53:57.223Z,1.60
2019-01-21T09:56:33.947Z,1.50
2019-01-21T09:59:06.895Z,1.50
2019-01-21T10:01:39.495Z,1.50
2019-01-21T10:04:15.951Z,1.50
2019-01-21T10:07:20.743Z,1.50
2019-01-21T10:10:36.647Z,1.40
2019-01-21T10:14:29.893Z,1.30
2019-01-21T10:17:40.252Z,1.20
2019-01-21T10:21:01.610Z,1.30
2019-01-21T10:24:15.988Z,1.40
2019-01-21T10:28:05.803Z,1.50
2019-01-21T10:31:11.579Z,1.60
2019-01-21T10:34:51.649Z,1.80
2019-01-21T10:38:32.322Z,2.00
2019-01-21T10:41:26.555Z,1.90
2019-01-21T10:44:46.106Z,1.90
2019-01-21T10:47:52.050Z,2.00
2019-01-21T10:51:00.024Z,1.80
2019-01-21T10:54:23.271Z,1.70
2019-01-21T10:57:39.635Z,1.60
2019-01-21T11:01:08.793Z,1.70
2019-01-21T11:04:45.413Z,1.90
2019-01-21T11:08:22.070Z,2.10
2019-01-21T11:11:54.112Z,2.10
2019-01-21T11:14:38.256Z,2.20
2019-01-21T11:18:02.657Z,2.40
2019-01-21T11:21:22.018Z,2.30
2019-01-21T11:25:01.032Z,2.20
2019-01-21T11:28:19.202Z,1.90
2019-01-21T11:31:23.757Z,1.80
2019-01-21T11:34:28.258Z,1.70
2019-01-21T11:37:51.242Z,1.80
2019-01-21T11:41:04.752Z,1.90
2019-01-21T11:44:27.136Z,2.20
2019-01-21T11:47:54.296Z,2.80
2019-01-21T11:50:41.600Z,3.30
2019-01-21T11:54:16.083Z,3.90
2019-01-21T11:57:11.013Z,4.50
2019-01-21T12:00:32.076Z,5.30
2019-01-21T12:03:37.027Z,5.20
2019-01-21T12:06:31.589Z,5.20
2019-01-21T12:09:51.504Z,5.10
2019-01-21T12:12:59.685Z,5.20
2019-01-21T12:16:37.359Z,6.50
2019-01-21T12:19:52.384Z,7.80
2019-01-21T12:23:03.926Z,8.30
2019-01-21T12:25:56.087Z,7.80
2019-01-21T12:29:07.442Z,5.80
2019-01-21T12:32:38.373Z,4.80
2019-01-21T12:36:00.318Z,3.80
2019-01-21T12:39:19.215Z,3.10
2019-01-21T12:42:44.491Z,2.40
2019-01-21T12:46:09.704Z,2.40
2019-01-21T12:49:52.201Z,2.70
2019-01-21T12:52:52.169Z,3.00
2019-01-21T12:56:22.032Z,3.10
2019-01-21T12:59:24.953Z,3.50
2019-01-21T13:03:05.600Z,3.60
2019-01-21T13:05:57.319Z,3.50
2019-01-21T13:09:13.433Z,3.80
2019-01-21T13:12:29.200Z,4.40
2019-01-21T13:15:37.622Z,5.50
2019-01-21T13:18:53.720Z,6.80
2019-01-21T13:22:14.816Z,8.50
2019-01-21T13:25:57.814Z,10.20
2019-01-21T13:29:32.110Z,11.40
2019-01-21T13:32:56.269Z,10.70
2019-01-21T13:36:52.103Z,10.80
2019-01-21T13:39:52.384Z,10.70
2019-01-21T13:42:55.349Z,11.00
2019-01-21T13:46:15.254Z,11.80
2019-01-21T13:49:24.273Z,12.40
2019-01-21T13:52:59.796Z,12.90
2019-01-21T13:56:19.904Z,13.20
2019-01-21T13:59:19.021Z,13.50
2019-01-21T14:02:31.810Z,13.50
2019-01-21T14:05:44.228Z,13.50
2019-01-21T14:08:54.867Z,13.40
2019-01-21T14:12:34.949Z,13.10
2019-01-21T14:16:12.784Z,12.40
2019-01-21T14:19:29.103Z,10.70
2019-01-21T14:23:13.903Z,8.70
2019-01-21T14:26:47.429Z,7.20
2019-01-21T14:30:07.469Z,5.90
2019-01-21T14:33:25.171Z,5.00
2019-01-21T14:36:46.244Z,4.20
2019-01-21T14:39:54.106Z,3.80
2019-01-21T14:43:08.506Z,3.50
2019-01-21T14:46:35.462Z,3.20
2019-01-21T14:49:50.244Z,2.90
2019-01-21T14:53:02.489Z,2.60
2019-01-21T14:56:35.108Z,2.40
2019-01-21T14:59:44.833Z,2.30
2019-01-21T15:03:07.966Z,2.10
2019-01-21T15:06:14.822Z,1.80
2019-01-21T15:10:16.410Z,1.60
2019-01-21T15:14:11.775Z,1.40
2019-01-21T15:17:22.482Z,1.50
2019-01-21T15:20:46.767Z,1.50
2019-01-21T15:24:09.617Z,1.40
2019-01-21T15:27:05.384Z,1.40
2019-01-21T15:30:32.922Z,1.20
2019-01-21T15:33:28.412Z,1.10
2019-01-21T15:36:37.139Z,1.00
2019-01-21T15:39:39.495Z,0.90
2019-01-21T15:42:50.778Z,0.90
2019-01-21T15:45:56.079Z,0.80
2019-01-21T15:48:38.287Z,0.70
2019-01-21T15:51:40.281Z,0.60
2019-01-21T15:54:58.222Z,0.60
2019-01-21T15:58:38.699Z,0.60
2019-01-21T16:02:30.244Z,0.50
2019-01-21T16:05:49.850Z,0.40
2019-01-21T16:09:02.308Z,0.30
2019-01-21T16:12:26.802Z,0.10
2019-01-21T16:15:35.585Z,0.10
2019-01-21T16:18:34.359Z,0.10
2019-01-21T16:21:52.726Z,0.10
2019-01-21T16:25:13.641Z,0.10
2019-01-21T16:28:41.097Z,0.10
2019-01-21T16:32:06.642Z,0.00
2019-01-21T16:35:14.961Z,-0.10
2019-01-21T16:38:35.267Z,-0.20
2019-01-21T16:42:00.486Z,-0.30
2019-01-21T16:44:33.564Z,-0.50
2019-01-21T16:47:06.204Z,-0.60
2019-01-21T16:49:38.682Z,-0.50
2019-01-21T16:52:11.259Z,-0.50
2019-01-21T16:54:43.734Z,-0.40
2019-01-21T16:57:16.320Z,-0.40
2019-01-21T16:59:48.861Z,-0.40
2019-01-21T17:02:21.235Z,-0.40
2019-01-21T17:04:53.728Z,-0.60
2019-01-21T17:07:26.216Z,-0.80
2019-01-21T17:09:58.599Z,-0.80
2019-01-21T17:12:30.984Z,-0.90
2019-01-21T17:15:03.563Z,-0.90
2019-01-21T17:17:35.939Z,-0.80
2019-01-21T17:20:14.731Z,-0.90
2019-01-21T17:22:47.209Z,-1.00
2019-01-21T17:25:20.030Z,-1.00
2019-01-21T17:27:52.603Z,-1.10
2019-01-21T17:30:25.191Z,-1.20
2019-01-21T17:32:57.687Z,-1.10
2019-01-21T17:35:30.269Z,-1.10
2019-01-21T17:38:02.842Z,-1.00
2019-01-21T17:40:35.438Z,-1.00
2019-01-21T17:43:07.929Z,-1.10
2019-01-21T17:45:40.412Z,-1.20
2019-01-21T17:48:13.205Z,-1.20
2019-01-21T17:50:45.774Z,-1.20
2019-01-21T17:53:18.490Z,-1.20
2019-01-21T17:55:51.271Z,-1.20
2019-01-21T17:58:23.654Z,-1.30
2019-01-21T18:00:56.182Z,-1.40
2019-01-21T18:03:28.666Z,-1.50
2019-01-21T18:06:01.059Z,-1.60
2019-01-21T18:08:33.544Z,-1.70
2019-01-21T18:11:06.033Z,-1.70
2019-01-21T18:13:38.610Z,-1.80
2019-01-21T18:16:11.186Z,-1.90
2019-01-21T18:18:43.707Z,-1.90
2019-01-21T18:21:16.335Z,-2.00
2019-01-21T18:23:48.869Z,-2.10
2019-01-21T18:26:21.505Z,-2.30
2019-01-21T18:28:53.987Z,-2.40
2019-01-21T18:31:26.363Z,-2.60
2019-01-21T18:33:58.744Z,-2.70
2019-01-21T18:36:31.321Z,-2.80
2019-01-21T18:39:04.141Z,-2.80
2019-01-21T18:41:37.663Z,-2.80
2019-01-21T18:44:10.231Z,-2.90
2019-01-21T18:46:42.725Z,-2.90
2019-01-21T18:49:15.209Z,-2.90
2019-01-21T18:51:47.597Z,-2.90
2019-01-21T18:54:20.151Z,-3.00
2019-01-21T18:56:52.701Z,-3.00
2019-01-21T18:59:25.171Z,-3.00
2019-01-21T19:01:57.662Z,-3.10
2019-01-21T19:04:30.147Z,-3.10
2019-01-21T19:07:02.841Z,-3.20
2019-01-21T19:09:35.316Z,-3.20
2019-01-21T19:12:08.000Z,-3.10
2019-01-21T19:14:40.574Z,-3.10
2019-01-21T19:17:13.066Z,-3.10
2019-01-21T19:19:45.448Z,-3.00
2019-01-21T19:22:17.840Z,-3.00
2019-01-21T19:24:50.338Z,-3.00
2019-01-21T19:27:22.814Z,-3.10
2019-01-21T19:29:55.199Z,-3.10
2019-01-21T19:32:27.680Z,-3.10
2019-01-21T19:35:00.171Z,-3.00
2019-01-21T19:37:32.745Z,-2.90
2019-01-21T19:40:06.106Z,-2.80
2019-01-21T19:42:38.487Z,-2.80
2019-01-21T19:45:11.717Z,-2.90
2019-01-21T19:47:44.225Z,-3.00
2019-01-21T19:50:19.377Z,-3.20
2019-01-21T19:52:51.973Z,-3.30
2019-01-21T19:55:37.511Z,-3.40
2019-01-21T19:58:11.269Z,-3.40
2019-01-21T20:00:43.906Z,-3.40
2019-01-21T20:03:16.479Z,-3.40
2019-01-21T20:05:49.166Z,-3.20
2019-01-21T20:08:21.660Z,-3.10
2019-01-21T20:10:54.145Z,-3.10
2019-01-21T20:13:26.641Z,-3.10
2019-01-21T20:15:59.089Z,-3.10
2019-01-21T20:18:31.580Z,-3.00
2019-01-21T20:21:04.485Z,-3.10
2019-01-21T20:23:36.956Z,-3.20
2019-01-21T20:26:09.441Z,-3.40
2019-01-21T20:28:41.815Z,-3.50
2019-01-21T20:31:14.299Z,-3.60
2019-01-21T20:33:51.962Z,-3.80
2019-01-21T20:36:20.992Z,-3.80
2019-01-21T20:38:53.374Z,-3.80
2019-01-21T20:41:25.966Z,-3.90
2019-01-21T20:43:58.444Z,-3.90
2019-01-21T20:46:31.065Z,-3.80
2019-01-21T20:49:03.597Z,-3.80
2019-01-21T20:51:36.226Z,-3.70
2019-01-21T20:54:09.055Z,-3.60
2019-01-21T20:56:41.576Z,-3.50
2019-01-21T20:59:14.075Z,-3.50
2019-01-21T21:01:46.633Z,-3.60
2019-01-21T21:04:19.606Z,-3.60
2019-01-21T21:06:51.960Z,-3.70
2019-01-21T21:09:24.332Z,-3.90
2019-01-21T21:11:56.792Z,-4.00
2019-01-21T21:14:29.166Z,-4.00
2019-01-21T21:17:01.535Z,-4.10
2019-01-21T21:19:33.899Z,-4.20
2019-01-21T21:22:06.462Z,-4.30
2019-01-21T21:24:38.814Z,-4.30
2019-01-21T21:27:11.170Z,-4.40
2019-01-21T21:29:43.871Z,-4.50
2019-01-21T21:32:16.191Z,-4.50
2019-01-21T21:34:48.657Z,-4.50
2019-01-21T21:37:21.310Z,-4.50
2019-01-21T21:39:54.437Z,-4.50
2019-01-21T21:42:27.039Z,-4.50
2019-01-21T21:44:59.403Z,-4.50
2019-01-21T21:47:31.850Z,-4.60
2019-01-21T21:50:04.634Z,-4.60
2019-01-21T21:52:36.987Z,-4.60
2019-01-21T21:55:10.837Z,-4.60
2019-01-21T21:57:43.434Z,-4.50
2019-01-21T22:00:27.022Z,-4.50
2019-01-21T22:02:59.534Z,-4.30
2019-01-21T22:05:32.155Z,-4.20
2019-01-21T22:08:04.908Z,-4.10
2019-01-21T22:10:37.669Z,-4.20
2019-01-21T22:13:10.223Z,-4.10
2019-01-21T22:15:42.582Z,-4.10
2019-01-21T22:18:14.936Z,-4.10
2019-01-21T22:20:47.601Z,-4.10
2019-01-21T22:23:19.969Z,-4.10
2019-01-21T22:25:52.447Z,-3.90
2019-01-21T22:28:24.932Z,-3.80
2019-01-21T22:30:57.415Z,-3.60
2019-01-21T22:33:29.791Z,-3.80
2019-01-21T22:36:02.271Z,-4.10
2019-01-21T22:38:34.647Z,-4.20
2019-01-21T22:41:07.240Z,-4.30
2019-01-21T22:43:39.618Z,-4.30
2019-01-21T22:46:12.194Z,-4.30
2019-01-21T22:48:44.767Z,-4.30
2019-01-21T22:51:17.357Z,-4.30
2019-01-21T22:53:49.728Z,-4.40
2019-01-21T22:56:22.113Z,-4.50
2019-01-21T22:58:54.495Z,-4.60
2019-01-21T23:01:37.010Z,-4.80
2019-01-21T23:04:09.695Z,-5.00
2019-01-21T23:06:42.324Z,-5.20
2019-01-21T23:09:14.798Z,-5.30
2019-01-21T23:11:47.683Z,-5.40
2019-01-21T23:14:20.368Z,-5.40
2019-01-21T23:16:52.759Z,-5.30
2019-01-21T23:19:25.113Z,-5.20
2019-01-21T23:21:57.595Z,-5.10
2019-01-21T23:24:30.079Z,-5.00
2019-01-21T23:27:02.466Z,-4.90
2019-01-21T23:29:34.933Z,-4.80
2019-01-21T23:32:07.426Z,-4.70
2019-01-21T23:34:44.161Z,-4.60
2019-01-21T23:37:13.931Z,-4.50
2019-01-21T23:39:46.308Z,-4.40
2019-01-21T23:42:19.092Z,-4.40
2019-01-21T23:44:51.567Z,-4.40
2019-01-21T23:47:24.051Z,-4.40
2019-01-21T23:49:56.523Z,-4.40
2019-01-21T23:52:28.920Z,-4.60
2019-01-21T23:55:02.454Z,-4.70
2019-01-21T23:57:34.871Z,-4.70
